Time;durP1;ratioP1;P1;durP2;ratioP2;P2;SDS_P1;SDS_P2;PMS_P1;PMS_P2;Temp;Humidity;BMP_temperature;BMP_pressure;BME280_temperature;BME280_humidity;BME280_pressure;Samples;Min_cycle;Max_cycle;Signal;HPM_P1;HPM_P2
2022/01/07 00:02:21;;;;;;;;;;;;;;;8.07;65.29;101321.59;5055910;28;19936;-79
2022/01/07 00:04:46;;;;;;;;;;;;;;;8.08;66.03;101317.13;5055609;28;19917;-81
2022/01/07 00:07:11;;;;;;;;;;;;;;;7.55;66.00;101318.59;5055293;28;19927;-81
2022/01/07 00:09:37;;;;;;;;;;;;;;;8.07;65.23;101309.94;5056047;28;20274;-80
2022/01/07 00:12:03;;;;;;;;;;;;;;;8.47;63.95;101311.44;5055996;28;19928;-81
2022/01/07 00:14:28;;;;;;;;;;;;;;;7.52;66.30;101312.38;5056110;28;19939;-81
2022/01/07 00:16:54;;;;;;;;;;;;;;;7.65;65.46;101310.25;5056235;28;20359;-81
2022/01/07 00:19:19;;;;;;;;;;;;;;;7.49;65.12;101299.91;5057850;28;19996;-82
2022/01/07 00:21:45;;;;;;;;;;;;;;;7.93;66.21;101296.91;5057143;28;19919;-80
2022/01/07 00:24:10;;;;;;;;;;;;;;;7.52;67.04;101304.31;5056340;28;19921;-79
2022/01/07 00:26:36;;;;;;;;;;;;;;;7.67;67.15;101306.59;5055917;28;19916;-81
2022/01/07 00:29:01;;;;;;;;;;;;;;;7.88;65.44;101301.50;5055851;28;20016;-81
2022/01/07 00:31:26;;;;;;;;;;;;;;;8.05;65.93;101296.53;5055377;28;19924;-80
2022/01/07 00:34:07;;;;;;;;;;;;;;;-147.53;100.00;59759.91;5056214;28;19924;-80
2022/01/07 00:37:31;;;;;;;;;;;;;;;-147.53;100.00;59759.91;5056905;28;19904;-81
2022/01/07 00:40:55;;;;;;;;;;;;;;;-147.53;100.00;59759.91;5055643;28;20262;-81
2022/01/07 00:44:13;;;;;;;;;;;;;;;-147.53;100.00;59759.91;5078020;28;19925;-80
2022/01/07 00:47:37;;;;;;;;;;;;;;;-147.53;100.00;59759.91;5078930;28;19917;-81
2022/01/07 00:50:04;;;;;;;;;;;;;;;8.85;61.90;101272.44;5078926;28;19917;-81
2022/01/07 00:52:29;;;;;;;;;;;;;;;8.22;63.09;101266.34;5079123;28;19916;-82
2022/01/07 00:54:55;;;;;;;;;;;;;;;8.00;63.69;101263.44;5080237;28;20407;-80
2022/01/07 00:58:19;;;;;;;;;;;;;;;-147.53;100.00;59759.91;5079635;28;19973;-79
2022/01/07 01:01:12;;;;;;;;;;;;;;;8.00;63.69;101263.44;5080117;28;19920;-80
2022/01/07 01:03:39;;;;;;;;;;;;;;;8.11;66.62;101257.75;5072564;28;19921;-83
2022/01/07 01:06:04;;;;;;;;;;;;;;;8.22;64.33;101257.41;5064472;28;19970;-82
2022/01/07 01:08:30;;;;;;;;;;;;;;;8.87;64.00;101248.97;5080150;28;19916;-81
2022/01/07 01:10:56;;;;;;;;;;;;;;;8.13;65.81;101253.16;5061550;28;19923;-82
2022/01/07 01:13:21;;;;;;;;;;;;;;;7.80;68.22;101258.66;5062942;28;19997;-82
2022/01/07 01:15:47;;;;;;;;;;;;;;;8.32;66.45;101234.63;5063421;28;20320;-83
2022/01/07 01:18:12;;;;;;;;;;;;;;;8.28;67.04;101241.91;5061754;28;20007;-83
2022/01/07 01:20:37;;;;;;;;;;;;;;;8.51;64.23;101240.31;5062677;28;19923;-82
2022/01/07 01:23:03;;;;;;;;;;;;;;;8.55;65.25;101233.03;5062484;28;19938;-83
2022/01/07 01:25:28;;;;;;;;;;;;;;;8.37;67.09;101226.38;5062615;28;19916;-82
2022/01/07 01:27:54;;;;;;;;;;;;;;;8.77;64.88;101225.06;5062364;28;20023;-83
2022/01/07 01:30:20;;;;;;;;;;;;;;;8.87;65.60;101223.84;5061706;28;19916;-83
2022/01/07 01:32:46;;;;;;;;;;;;;;;8.60;65.24;101217.56;5062334;28;19921;-82
2022/01/07 01:35:11;;;;;;;;;;;;;;;8.50;65.45;101215.19;5062247;28;19920;-83
2022/01/07 01:37:37;;;;;;;;;;;;;;;8.81;65.65;101218.66;5063534;28;19916;-81
2022/01/07 01:40:03;;;;;;;;;;;;;;;8.63;64.31;101221.03;5079749;28;19928;-82
2022/01/07 01:42:28;;;;;;;;;;;;;;;8.63;65.62;101207.53;5062694;28;19927;-82
2022/01/07 01:44:54;;;;;;;;;;;;;;;8.58;65.70;101208.66;5080772;28;20346;-82
2022/01/07 01:47:19;;;;;;;;;;;;;;;8.16;66.01;101200.03;5063080;28;19971;-82
2022/01/07 01:49:44;;;;;;;;;;;;;;;8.93;64.24;101201.16;5079298;28;19917;-81
2022/01/07 01:52:09;;;;;;;;;;;;;;;8.51;65.36;101198.06;5060725;28;19944;-82
2022/01/07 01:54:35;;;;;;;;;;;;;;;8.73;64.40;101180.28;5060838;28;19917;-82
2022/01/07 01:57:00;;;;;;;;;;;;;;;8.54;65.04;101186.28;5080703;28;20009;-81
2022/01/07 01:59:26;;;;;;;;;;;;;;;9.53;61.05;101189.06;5061623;28;19916;-82
2022/01/07 02:01:52;;;;;;;;;;;;;;;8.71;65.03;101184.81;5061121;28;19929;-83
2022/01/07 02:04:17;;;;;;;;;;;;;;;8.73;65.75;101191.06;5079137;28;20011;-81
2022/01/07 02:06:43;;;;;;;;;;;;;;;9.00;64.54;101179.28;5061119;28;19970;-80
2022/01/07 02:09:08;;;;;;;;;;;;;;;9.28;62.79;101170.19;5061031;28;19969;-81
2022/01/07 02:11:33;;;;;;;;;;;;;;;8.56;64.98;101173.66;5061569;28;19917;-80
2022/01/07 02:13:59;;;;;;;;;;;;;;;8.87;64.12;101167.16;5060333;28;20011;-81
2022/01/07 02:16:28;;;;;;;;;;;;;;;8.88;64.27;101160.84;5060724;28;19917;-81
2022/01/07 02:18:53;;;;;;;;;;;;;;;8.65;65.79;101156.25;5061163;28;19916;-82
2022/01/07 02:21:19;;;;;;;;;;;;;;;9.07;64.88;101157.47;5061445;28;19928;-82
2022/01/07 02:23:44;;;;;;;;;;;;;;;8.46;65.58;101164.97;5061453;28;19916;-81
2022/01/07 02:26:11;;;;;;;;;;;;;;;8.25;67.78;101173.75;5078548;28;19916;-82
2022/01/07 02:28:36;;;;;;;;;;;;;;;8.51;67.21;101154.94;5061301;28;19923;-82
2022/01/07 02:31:02;;;;;;;;;;;;;;;8.73;66.76;101162.28;5061443;28;19928;-82
2022/01/07 02:33:27;;;;;;;;;;;;;;;8.81;67.12;101160.16;5060548;28;19935;-82
2022/01/07 02:35:52;;;;;;;;;;;;;;;8.78;67.38;101157.59;5060746;28;20362;-82
2022/01/07 02:38:18;;;;;;;;;;;;;;;8.94;67.26;101151.66;5061230;28;20416;-82
2022/01/07 02:40:43;;;;;;;;;;;;;;;8.68;67.23;101146.25;5060609;28;20281;-82
2022/01/07 02:43:08;;;;;;;;;;;;;;;8.21;67.99;101151.38;5060275;28;19924;-81
2022/01/07 02:45:34;;;;;;;;;;;;;;;8.42;68.40;101144.41;5060738;28;19916;-82
2022/01/07 02:48:02;;;;;;;;;;;;;;;8.95;65.98;101134.53;5060638;28;19955;-81
2022/01/07 02:50:35;;;;;;;;;;;;;;;8.85;65.72;101134.84;5060665;28;19923;-82
2022/01/07 02:53:02;;;;;;;;;;;;;;;9.04;65.09;101132.38;5060396;28;19924;-82
2022/01/07 02:55:27;;;;;;;;;;;;;;;8.66;65.61;101131.91;5060906;28;19923;-82
2022/01/07 02:57:53;;;;;;;;;;;;;;;8.94;65.43;101119.28;5061168;28;20297;-83
2022/01/07 03:00:19;;;;;;;;;;;;;;;9.53;63.44;101113.44;5060731;28;19921;-82
2022/01/07 03:02:48;;;;;;;;;;;;;;;9.03;65.54;101116.25;5061402;28;19916;-82
2022/01/07 03:05:14;;;;;;;;;;;;;;;9.57;65.09;101116.88;5061191;28;19916;-83
2022/01/07 03:07:39;;;;;;;;;;;;;;;8.86;66.75;101123.13;5062225;28;19984;-82
2022/01/07 03:10:05;;;;;;;;;;;;;;;9.12;66.54;101115.91;5061651;28;19917;-82
2022/01/07 03:12:32;;;;;;;;;;;;;;;9.33;66.09;101110.59;5079326;28;19913;-82
2022/01/07 03:14:57;;;;;;;;;;;;;;;9.24;65.68;101111.88;5060635;28;19922;-82
2022/01/07 03:17:23;;;;;;;;;;;;;;;9.35;65.14;101111.44;5079534;28;19916;-81
2022/01/07 03:19:48;;;;;;;;;;;;;;;9.27;65.48;101108.16;5060653;28;19920;-83
2022/01/07 03:22:13;;;;;;;;;;;;;;;9.05;67.69;101107.13;5061302;28;19979;-83
2022/01/07 03:24:38;;;;;;;;;;;;;;;8.98;69.92;101100.22;5061106;28;19916;-82
2022/01/07 03:27:05;;;;;;;;;;;;;;;9.40;66.80;101085.13;5061169;28;19917;-82
2022/01/07 03:29:30;;;;;;;;;;;;;;;9.19;66.71;101090.44;5061219;28;19975;-82
2022/01/07 03:31:55;;;;;;;;;;;;;;;9.38;67.20;101087.91;5077921;28;19925;-80
2022/01/07 03:34:21;;;;;;;;;;;;;;;8.72;75.83;101081.41;5061400;28;19999;-81
2022/01/07 03:36:46;;;;;;;;;;;;;;;9.61;66.17;101085.25;5061512;28;19924;-82
2022/01/07 03:39:11;;;;;;;;;;;;;;;9.18;68.21;101091.38;5061395;28;20019;-81
2022/01/07 03:41:36;;;;;;;;;;;;;;;9.08;68.42;101073.75;5061323;28;19928;-82
2022/01/07 03:44:02;;;;;;;;;;;;;;;9.18;67.54;101064.38;5079693;28;19924;-80
2022/01/07 03:46:27;;;;;;;;;;;;;;;8.84;67.91;101060.25;5078902;28;19971;-81
2022/01/07 03:48:52;;;;;;;;;;;;;;;9.34;68.15;101050.28;5062135;28;19917;-81
2022/01/07 03:51:18;;;;;;;;;;;;;;;9.02;66.95;101057.81;5061958;28;19921;-82
2022/01/07 03:53:43;;;;;;;;;;;;;;;9.15;67.85;101059.09;5080024;28;20443;-80
2022/01/07 03:56:11;;;;;;;;;;;;;;;8.86;69.39;101044.00;5080423;28;19960;-82
2022/01/07 03:58:37;;;;;;;;;;;;;;;8.72;69.40;101036.41;5062203;28;19916;-82
2022/01/07 04:01:02;;;;;;;;;;;;;;;8.79;69.40;101034.41;5061863;28;19936;-81
2022/01/07 04:03:29;;;;;;;;;;;;;;;9.15;68.88;101017.72;5061153;28;20377;-82
2022/01/07 04:05:54;;;;;;;;;;;;;;;8.87;69.51;101025.06;5062147;28;19925;-81
2022/01/07 04:08:19;;;;;;;;;;;;;;;9.20;67.86;101015.72;5062189;28;19916;-82
2022/01/07 04:10:45;;;;;;;;;;;;;;;9.28;67.10;101031.63;5061935;28;19917;-82
2022/01/07 04:13:10;;;;;;;;;;;;;;;8.94;69.18;101025.72;5079958;28;19917;-82
2022/01/07 04:15:36;;;;;;;;;;;;;;;9.82;65.17;101019.53;5062342;28;19916;-81
2022/01/07 04:18:02;;;;;;;;;;;;;;;9.26;67.96;101036.22;5065263;28;19917;-83
2022/01/07 04:20:28;;;;;;;;;;;;;;;9.53;67.25;101032.41;5065130;28;20396;-82
2022/01/07 04:22:54;;;;;;;;;;;;;;;9.16;67.64;101027.59;5083193;28;19923;-82
2022/01/07 04:25:20;;;;;;;;;;;;;;;9.25;67.07;101024.53;5065987;28;19920;-82
2022/01/07 04:28:12;;;;;;;;;;;;;;;9.87;64.95;101012.13;5065914;28;19962;-82
2022/01/07 04:30:39;;;;;;;;;;;;;;;9.47;66.97;101012.88;5060584;28;19925;-82
2022/01/07 04:33:05;;;;;;;;;;;;;;;9.56;65.66;101010.66;5063542;28;19916;-80
2022/01/07 04:35:31;;;;;;;;;;;;;;;8.91;68.47;101022.22;5064624;28;20316;-81
2022/01/07 04:37:57;;;;;;;;;;;;;;;9.66;66.18;101013.91;5064453;28;19944;-83
2022/01/07 04:40:22;;;;;;;;;;;;;;;9.16;67.15;101017.69;5083343;28;19920;-82
2022/01/07 04:42:48;;;;;;;;;;;;;;;9.60;66.02;101018.66;5063855;28;19920;-80
2022/01/07 04:45:13;;;;;;;;;;;;;;;9.16;67.35;101019.47;5064632;28;19916;-81
2022/01/07 04:47:39;;;;;;;;;;;;;;;9.31;66.48;101015.31;5065414;28;19916;-81
2022/01/07 04:50:06;;;;;;;;;;;;;;;9.52;66.68;101014.44;5064745;28;19920;-80
2022/01/07 04:52:31;;;;;;;;;;;;;;;9.39;65.93;101005.97;5064753;28;19923;-81
2022/01/07 04:54:57;;;;;;;;;;;;;;;9.60;66.47;101024.06;5062465;28;19963;-82
2022/01/07 04:57:22;;;;;;;;;;;;;;;9.71;66.31;101008.31;5063690;28;19978;-84
2022/01/07 04:59:47;;;;;;;;;;;;;;;9.52;67.70;101008.16;5062437;28;19916;-81
2022/01/07 05:03:12;;;;;;;;;;;;;;;-147.53;100.00;59759.91;5065166;28;20011;-82
2022/01/07 05:09:06;;;;;;;;;;;;;;;9.52;67.70;101008.16;5083964;28;19916;-82
2022/01/07 05:11:31;;;;;;;;;;;;;;;10.31;63.94;100994.94;5064962;28;19917;-82
2022/01/07 05:13:56;;;;;;;;;;;;;;;9.84;66.58;100996.00;5065625;28;19927;-82
2022/01/07 05:16:23;;;;;;;;;;;;;;;10.06;66.12;100997.81;5083914;28;20023;-81
2022/01/07 05:18:48;;;;;;;;;;;;;;;10.02;64.76;100996.19;5065717;28;19943;-81
2022/01/07 05:21:13;;;;;;;;;;;;;;;10.40;64.45;100993.66;5064088;28;19924;-82
2022/01/07 05:23:39;;;;;;;;;;;;;;;10.26;63.26;101005.91;5061333;28;19916;-81
2022/01/07 05:26:07;;;;;;;;;;;;;;;9.70;65.99;101006.53;5060884;28;19921;-82
2022/01/07 05:28:32;;;;;;;;;;;;;;;10.61;64.75;101011.66;5061257;28;19916;-82
2022/01/07 05:30:57;;;;;;;;;;;;;;;10.46;64.75;101006.91;5061956;28;20061;-81
2022/01/07 05:33:22;;;;;;;;;;;;;;;10.48;63.87;101010.44;5061922;28;19927;-82
2022/01/07 05:35:48;;;;;;;;;;;;;;;9.47;67.43;101013.75;5078880;28;19916;-81
2022/01/07 05:38:13;;;;;;;;;;;;;;;10.00;66.72;101015.16;5060660;28;19962;-81
2022/01/07 05:40:38;;;;;;;;;;;;;;;10.33;64.89;101008.38;5059209;28;19916;-82
2022/01/07 05:43:03;;;;;;;;;;;;;;;10.64;62.70;101006.09;5060644;28;19921;-81
2022/01/07 05:45:29;;;;;;;;;;;;;;;10.71;63.03;101008.53;5060318;28;19916;-82
2022/01/07 05:47:55;;;;;;;;;;;;;;;11.22;60.98;100996.19;5060260;28;19971;-81
2022/01/07 05:50:21;;;;;;;;;;;;;;;10.86;61.21;101010.50;5060158;28;19969;-81
2022/01/07 05:52:47;;;;;;;;;;;;;;;10.45;64.05;101002.47;5060048;28;19911;-82
2022/01/07 05:55:12;;;;;;;;;;;;;;;10.81;62.57;101012.56;5060007;28;19920;-82
2022/01/07 05:57:37;;;;;;;;;;;;;;;10.75;63.31;100996.59;5059282;28;20015;-81
2022/01/07 06:00:04;;;;;;;;;;;;;;;10.05;65.86;101009.56;5059925;28;19927;-82
2022/01/07 06:02:29;;;;;;;;;;;;;;;10.45;63.00;101008.75;5060043;28;19928;-81
2022/01/07 06:04:55;;;;;;;;;;;;;;;10.99;60.94;101022.53;5043294;28;19928;-81
2022/01/07 06:07:20;;;;;;;;;;;;;;;10.43;65.09;101012.44;5059967;28;19917;-82
2022/01/07 06:09:45;;;;;;;;;;;;;;;9.92;66.01;101011.94;5077831;28;19963;-81
2022/01/07 06:12:11;;;;;;;;;;;;;;;10.23;66.37;101011.47;5077494;28;19923;-81
2022/01/07 06:14:36;;;;;;;;;;;;;;;10.51;64.01;101001.28;5058845;28;19964;-81
2022/01/07 06:17:01;;;;;;;;;;;;;;;11.08;62.76;101006.78;5077459;28;19920;-81
2022/01/07 06:19:26;;;;;;;;;;;;;;;10.80;63.97;101013.50;5060667;28;19939;-81
2022/01/07 06:21:52;;;;;;;;;;;;;;;10.91;64.19;101013.00;5060288;28;19928;-82
2022/01/07 06:24:17;;;;;;;;;;;;;;;11.09;63.03;101012.13;5059255;28;19939;-82
2022/01/07 06:26:42;;;;;;;;;;;;;;;10.19;64.27;101020.69;5067271;28;19983;-81
2022/01/07 06:29:08;;;;;;;;;;;;;;;10.59;65.02;101008.13;5038962;28;19917;-82
2022/01/07 06:31:33;;;;;;;;;;;;;;;10.53;66.02;101004.81;5038262;28;19925;-82
2022/01/07 06:33:59;;;;;;;;;;;;;;;10.20;66.01;100998.09;5068214;28;19920;-82
2022/01/07 06:36:24;;;;;;;;;;;;;;;10.50;66.45;100997.72;5053642;28;19921;-81
2022/01/07 06:38:50;;;;;;;;;;;;;;;10.90;64.07;100998.59;5047174;28;20401;-80
2022/01/07 06:41:15;;;;;;;;;;;;;;;10.85;64.18;101000.63;5038338;28;19966;-81
2022/01/07 06:43:40;;;;;;;;;;;;;;;10.58;64.43;101013.59;5038784;28;19917;-81
2022/01/07 06:46:06;;;;;;;;;;;;;;;10.60;63.75;101019.84;5057289;28;19924;-82
2022/01/07 06:48:31;;;;;;;;;;;;;;;11.45;60.29;101015.88;5039677;28;20335;-81
2022/01/07 06:50:56;;;;;;;;;;;;;;;11.11;60.76;101020.19;5038834;28;20004;-81
2022/01/07 06:53:21;;;;;;;;;;;;;;;11.32;60.30;101015.56;5040269;28;20443;-82
2022/01/07 06:55:46;;;;;;;;;;;;;;;11.09;61.75;101013.97;5039583;28;19963;-81
2022/01/07 06:58:12;;;;;;;;;;;;;;;10.67;64.36;101015.00;5055947;28;19921;-82
2022/01/07 07:00:37;;;;;;;;;;;;;;;11.85;58.86;101011.19;5038138;28;19976;-82
2022/01/07 07:03:02;;;;;;;;;;;;;;;10.64;62.43;101007.91;5038932;28;20311;-83
2022/01/07 07:05:28;;;;;;;;;;;;;;;11.19;61.84;101007.19;5040212;28;19924;-83
2022/01/07 07:07:53;;;;;;;;;;;;;;;10.36;64.43;101009.16;5057736;28;19920;-83
2022/01/07 07:10:18;;;;;;;;;;;;;;;10.82;62.78;101003.47;5057190;28;19917;-83
2022/01/07 07:12:43;;;;;;;;;;;;;;;10.21;64.43;100999.84;5055620;28;19923;-82
2022/01/07 07:15:09;;;;;;;;;;;;;;;10.02;65.09;100998.88;5055391;28;19921;-83
2022/01/07 07:17:34;;;;;;;;;;;;;;;9.70;66.08;101001.13;5037417;28;20027;-82
2022/01/07 07:20:00;;;;;;;;;;;;;;;9.89;66.17;101002.13;5036652;28;19917;-83
2022/01/07 07:22:27;;;;;;;;;;;;;;;10.33;63.80;101000.28;5037093;28;19948;-83
2022/01/07 07:24:52;;;;;;;;;;;;;;;10.49;63.42;101004.06;5035883;28;20371;-83
2022/01/07 07:27:17;;;;;;;;;;;;;;;10.13;65.28;100995.72;5036726;28;19999;-82
2022/01/07 07:29:42;;;;;;;;;;;;;;;9.62;66.94;101001.44;5038494;28;20020;-83
2022/01/07 07:32:09;;;;;;;;;;;;;;;10.03;65.75;100996.13;5056664;28;19955;-82
2022/01/07 07:37:07;;;;;;;;;;;;;;;10.34;63.63;100985.81;5056856;28;19924;-82
2022/01/07 07:39:33;;;;;;;;;;;;;;;10.25;63.99;100981.66;5056266;28;19928;-82
2022/01/07 07:41:58;;;;;;;;;;;;;;;10.35;62.84;100988.44;5037880;28;19921;-82
2022/01/07 07:44:23;;;;;;;;;;;;;;;10.36;63.24;100994.75;5037447;28;19917;-82
2022/01/07 07:46:48;;;;;;;;;;;;;;;10.16;64.51;100993.78;5038527;28;19946;-83
2022/01/07 07:49:14;;;;;;;;;;;;;;;10.58;62.35;101008.19;5056359;28;19920;-83
2022/01/07 07:51:40;;;;;;;;;;;;;;;10.17;63.79;101000.06;5057534;28;20370;-82
2022/01/07 07:54:06;;;;;;;;;;;;;;;10.61;62.44;101005.34;5042441;28;19917;-82
2022/01/07 07:56:31;;;;;;;;;;;;;;;10.59;62.08;101008.13;5042831;28;20000;-82
2022/01/07 07:58:58;;;;;;;;;;;;;;;10.82;60.81;101003.47;5042966;28;20366;-81
2022/01/07 08:01:24;;;;;;;;;;;;;;;10.40;62.18;101018.91;5041790;28;20328;-82
2022/01/07 08:03:49;;;;;;;;;;;;;;;9.80;64.58;101016.03;5042935;28;19917;-82
2022/01/07 08:06:14;;;;;;;;;;;;;;;10.93;60.81;101016.50;5044228;28;19923;-83
2022/01/07 08:08:40;;;;;;;;;;;;;;;10.44;61.93;101025.03;5043778;28;19960;-82
2022/01/07 08:11:08;;;;;;;;;;;;;;;10.76;60.82;101025.41;5060140;28;19959;-80
2022/01/07 08:16:23;;;;;;;;;;;;;;;10.39;62.56;101024.38;5059969;28;19940;-81
2022/01/07 08:18:49;;;;;;;;;;;;;;;10.10;62.87;101027.34;5042499;28;19956;-81
2022/01/07 08:21:15;;;;;;;;;;;;;;;9.94;63.37;101015.44;5042501;28;19940;-81
2022/01/07 08:23:41;;;;;;;;;;;;;;;10.51;61.93;101018.41;5041976;28;20367;-81
2022/01/07 08:26:09;;;;;;;;;;;;;;;10.13;63.03;101020.03;5042926;28;20284;-82
2022/01/07 08:28:39;;;;;;;;;;;;;;;9.91;65.27;101019.13;5043964;28;19916;-80
2022/01/07 08:36:19;;;;;;;;;;;;;;;10.70;62.02;101015.75;5059780;28;19923;-80
2022/01/07 08:38:45;;;;;;;;;;;;;;;10.08;63.53;101010.34;5041087;28;19985;-79
2022/01/07 08:41:10;;;;;;;;;;;;;;;9.98;64.25;101010.75;5040640;28;19921;-79
2022/01/07 08:43:36;;;;;;;;;;;;;;;10.00;62.96;101006.19;5041183;28;20004;-81
2022/01/07 08:46:02;;;;;;;;;;;;;;;9.63;65.72;101008.63;5058842;28;20404;-80
2022/01/07 08:48:27;;;;;;;;;;;;;;;10.42;63.10;101014.28;5042542;28;19923;-81
2022/01/07 08:50:53;;;;;;;;;;;;;;;10.37;63.00;101012.72;5060295;28;20015;-83
2022/01/07 08:53:18;;;;;;;;;;;;;;;10.19;63.19;101019.78;5060344;28;19942;-80
2022/01/07 08:55:43;;;;;;;;;;;;;;;10.61;61.28;101008.03;5042454;28;19917;-84
2022/01/07 08:58:08;;;;;;;;;;;;;;;10.07;63.09;101005.84;5040950;28;20220;-82
2022/01/07 09:00:33;;;;;;;;;;;;;;;10.55;63.09;101003.81;5039985;28;19960;-81
2022/01/07 09:03:00;;;;;;;;;;;;;;;10.09;63.73;101003.97;5040027;28;19939;-80
2022/01/07 09:05:25;;;;;;;;;;;;;;;10.84;62.41;101000.69;5040657;28;19917;-81
2022/01/07 09:07:50;;;;;;;;;;;;;;;10.15;65.53;101012.78;5041747;28;20061;-82
2022/01/07 09:10:16;;;;;;;;;;;;;;;10.10;66.26;101008.44;5041244;28;19923;-82
2022/01/07 09:12:41;;;;;;;;;;;;;;;11.47;61.47;100995.91;5041746;28;20014;-81
2022/01/07 09:15:06;;;;;;;;;;;;;;;10.92;63.84;100991.28;5049474;28;20278;-82
2022/01/07 09:17:32;;;;;;;;;;;;;;;10.89;63.58;100988.72;5041721;28;19969;-82
2022/01/07 09:19:59;;;;;;;;;;;;;;;10.51;64.58;101004.00;5041609;28;20398;-82
2022/01/07 09:22:24;;;;;;;;;;;;;;;11.42;60.68;100991.66;5040263;28;19916;-85
2022/01/07 09:24:49;;;;;;;;;;;;;;;10.70;62.61;100999.50;5040467;28;19939;-85
2022/01/07 09:27:14;;;;;;;;;;;;;;;11.07;61.69;101003.22;5041310;28;19917;-84
2022/01/07 09:29:40;;;;;;;;;;;;;;;10.90;62.22;100997.72;5059231;28;20342;-85
2022/01/07 09:32:05;;;;;;;;;;;;;;;11.55;60.29;101000.94;5039548;28;20019;-82
2022/01/07 09:34:30;;;;;;;;;;;;;;;11.69;59.73;100992.13;5040271;28;20294;-85
2022/01/07 09:36:56;;;;;;;;;;;;;;;10.33;63.63;101003.88;5064121;28;19920;-82
2022/01/07 09:39:21;;;;;;;;;;;;;;;11.68;60.09;100991.25;5055746;28;20015;-83
2022/01/07 09:41:47;;;;;;;;;;;;;;;12.08;58.33;100998.31;5056827;28;19921;-82
2022/01/07 09:44:12;;;;;;;;;;;;;;;11.86;57.81;100991.25;5057512;28;19928;-82
2022/01/07 09:46:39;;;;;;;;;;;;;;;10.56;62.37;100992.03;5059354;28;19921;-81
2022/01/07 09:49:04;;;;;;;;;;;;;;;11.89;58.31;100993.81;5057627;28;20527;-81
2022/01/07 09:51:30;;;;;;;;;;;;;;;10.56;63.63;100992.03;5059547;28;19917;-83
2022/01/07 09:53:55;;;;;;;;;;;;;;;11.60;59.33;100990.75;5059453;28;19927;-83
2022/01/07 09:56:20;;;;;;;;;;;;;;;10.89;59.20;101002.25;5076598;28;19924;-83
2022/01/07 09:58:45;;;;;;;;;;;;;;;10.35;62.01;101009.22;5059358;28;19920;-81
2022/01/07 10:01:14;;;;;;;;;;;;;;;11.28;61.27;100990.50;5059632;28;19985;-82
2022/01/07 10:03:40;;;;;;;;;;;;;;;11.22;60.02;101004.31;5060081;28;19916;-83
2022/01/07 10:06:15;;;;;;;;;;;;;;;11.68;58.29;100987.63;5051816;28;19921;-83
2022/01/07 10:08:40;;;;;;;;;;;;;;;10.24;60.89;100996.16;5052249;28;20650;-81
2022/01/07 10:11:18;;;;;;;;;;;;;;;10.54;59.87;101007.47;5076081;28;19924;-82
2022/01/07 10:13:45;;;;;;;;;;;;;;;11.44;58.50;101003.28;5057266;28;20176;-82
2022/01/07 10:16:15;;;;;;;;;;;;;;;10.27;60.19;101007.69;5058688;28;19946;-82
2022/01/07 10:18:40;;;;;;;;;;;;;;;11.45;57.81;101002.34;5059253;28;19916;-83
2022/01/07 10:21:09;;;;;;;;;;;;;;;10.69;58.13;100999.56;5059115;28;19939;-83
2022/01/07 10:23:34;;;;;;;;;;;;;;;11.59;56.68;101001.66;5059072;28;19962;-81
2022/01/07 10:26:03;;;;;;;;;;;;;;;10.98;60.30;100999.09;5059046;28;19905;-83
2022/01/07 10:28:29;;;;;;;;;;;;;;;12.04;58.16;100997.63;5076902;28;20297;-83
2022/01/07 10:30:55;;;;;;;;;;;;;;;11.41;60.24;101001.59;5057363;28;20352;-84
2022/01/07 10:33:27;;;;;;;;;;;;;;;11.62;59.64;100991.53;5057819;28;19920;-82
2022/01/07 10:36:16;;;;;;;;;;;;;;;11.42;59.14;100991.66;5055330;28;20377;-85
2022/01/07 10:38:49;;;;;;;;;;;;;;;11.40;61.17;100989.03;5047634;28;19970;-83
2022/01/07 10:41:15;;;;;;;;;;;;;;;10.73;61.45;101003.91;5058207;28;19920;-82
2022/01/07 10:43:40;;;;;;;;;;;;;;;11.99;58.46;100992.44;5059511;28;19976;-83
2022/01/07 10:46:08;;;;;;;;;;;;;;;11.32;57.76;100988.50;5075528;28;19917;-84
2022/01/07 10:48:38;;;;;;;;;;;;;;;11.94;56.95;100988.19;5057576;28;20007;-82
2022/01/07 10:51:09;;;;;;;;;;;;;;;12.69;54.45;100981.50;5057849;28;20362;-82
2022/01/07 10:53:37;;;;;;;;;;;;;;;13.26;52.01;100980.22;5058141;28;19911;-83
2022/01/07 10:56:14;;;;;;;;;;;;;;;12.12;54.89;100980.94;5076658;28;19924;-81
2022/01/07 10:58:45;;;;;;;;;;;;;;;13.24;53.48;100982.13;5049040;28;19917;-82
2022/01/07 11:01:22;;;;;;;;;;;;;;;13.52;51.78;100972.44;5057050;28;19924;-81
2022/01/07 11:03:48;;;;;;;;;;;;;;;14.11;50.56;100970.72;5073065;28;19917;-81
2022/01/07 11:06:14;;;;;;;;;;;;;;;12.62;54.62;100974.69;5055069;28;19920;-81
2022/01/07 11:08:40;;;;;;;;;;;;;;;12.50;54.23;100970.78;5056082;28;19919;-81
2022/01/07 11:11:05;;;;;;;;;;;;;;;13.54;51.79;100965.06;5073665;28;19938;-82
2022/01/07 11:13:31;;;;;;;;;;;;;;;12.31;53.84;100987.16;5056410;28;19924;-81
2022/01/07 11:15:56;;;;;;;;;;;;;;;13.05;51.91;100980.44;5056062;28;20011;-82
2022/01/07 11:18:24;;;;;;;;;;;;;;;12.44;52.24;100990.13;5074281;28;19963;-81
2022/01/07 11:20:49;;;;;;;;;;;;;;;12.10;50.17;101001.84;5050539;28;20285;-81
2022/01/07 11:23:15;;;;;;;;;;;;;;;12.74;47.57;100997.53;5055637;28;19916;-81
2022/01/07 11:25:40;;;;;;;;;;;;;;;12.60;47.11;100998.28;5074605;28;19916;-79
2022/01/07 11:28:15;;;;;;;;;;;;;;;11.97;48.09;100991.63;5075089;28;20350;-79
2022/01/07 11:30:40;;;;;;;;;;;;;;;11.98;47.36;100990.66;5056443;28;19928;-79
2022/01/07 11:33:17;;;;;;;;;;;;;;;12.73;46.63;100977.69;5056123;28;19991;-80
2022/01/07 11:35:45;;;;;;;;;;;;;;;12.53;45.42;100986.00;5055233;28;20293;-81
2022/01/07 11:38:31;;;;;;;;;;;;;;;12.27;46.15;100987.41;5056056;28;19916;-81
2022/01/07 11:40:57;;;;;;;;;;;;;;;12.33;45.75;100977.09;5053249;28;20413;-81
2022/01/07 11:43:31;;;;;;;;;;;;;;;11.89;46.54;100975.69;5074354;28;19920;-81
2022/01/07 11:46:16;;;;;;;;;;;;;;;12.35;45.40;100968.88;5052176;28;19923;-81
2022/01/07 11:48:42;;;;;;;;;;;;;;;11.92;46.01;100971.09;5040503;28;19966;-80
2022/01/07 11:51:11;;;;;;;;;;;;;;;12.28;44.78;100965.63;5075099;28;19917;-81
2022/01/07 11:53:40;;;;;;;;;;;;;;;11.98;45.57;100954.56;5067581;28;20034;-81
2022/01/07 11:56:06;;;;;;;;;;;;;;;11.84;45.44;100956.09;5056301;28;20003;-80
2022/01/07 11:58:37;;;;;;;;;;;;;;;12.20;44.41;100959.75;5074416;28;20393;-80
2022/01/07 12:01:04;;;;;;;;;;;;;;;12.58;43.45;100962.22;5057802;28;19929;-81
2022/01/07 12:03:31;;;;;;;;;;;;;;;12.39;44.71;100960.53;5058550;28;19931;-82
2022/01/07 12:05:56;;;;;;;;;;;;;;;13.24;43.18;100963.09;5056944;28;19981;-83
2022/01/07 12:08:38;;;;;;;;;;;;;;;12.43;44.67;100957.66;5055928;28;20409;-82
2022/01/07 12:11:07;;;;;;;;;;;;;;;12.64;44.15;100961.91;5055151;28;19995;-82
2022/01/07 12:13:37;;;;;;;;;;;;;;;12.68;44.69;100968.03;5057128;28;19916;-83
2022/01/07 12:16:03;;;;;;;;;;;;;;;12.80;44.97;100969.19;5057735;28;19920;-83
2022/01/07 12:18:35;;;;;;;;;;;;;;;12.13;45.76;100970.00;5074642;28;20286;-82
2022/01/07 12:21:01;;;;;;;;;;;;;;;14.15;42.46;100968.72;5055950;28;19926;-84
2022/01/07 12:23:27;;;;;;;;;;;;;;;12.83;43.68;100974.44;5074134;28;20443;-83
2022/01/07 12:25:53;;;;;;;;;;;;;;;12.26;45.32;100981.13;5074321;28;19925;-83
2022/01/07 12:28:19;;;;;;;;;;;;;;;11.93;45.56;100973.78;5056978;28;19925;-82
2022/01/07 12:30:46;;;;;;;;;;;;;;;12.71;44.18;100974.19;5074271;28;19928;-83
2022/01/07 12:33:12;;;;;;;;;;;;;;;12.92;44.15;100968.50;5055197;28;19920;-82
2022/01/07 12:35:37;;;;;;;;;;;;;;;13.63;43.38;100956.38;5056591;28;20378;-80
2022/01/07 12:38:15;;;;;;;;;;;;;;;13.36;43.13;100954.31;5057222;28;20381;-82
2022/01/07 12:40:41;;;;;;;;;;;;;;;13.76;41.75;100951.09;5059857;28;20449;-83
2022/01/07 12:43:06;;;;;;;;;;;;;;;13.16;42.91;100944.53;5060084;28;19959;-82
2022/01/07 12:45:32;;;;;;;;;;;;;;;12.91;43.45;100953.19;5078075;28;20402;-82
2022/01/07 12:47:58;;;;;;;;;;;;;;;13.96;41.96;100936.28;5061148;28;19968;-85
2022/01/07 12:50:26;;;;;;;;;;;;;;;12.84;43.89;100930.06;5062193;28;19916;-85
2022/01/07 12:52:51;;;;;;;;;;;;;;;12.44;46.33;100938.56;5060887;28;20346;-82
2022/01/07 12:55:18;;;;;;;;;;;;;;;12.47;46.86;100932.06;5060593;28;19921;-82
2022/01/07 12:57:46;;;;;;;;;;;;;;;11.37;48.98;100934.09;5060274;28;19924;-83